Latest Weather Observations for Cooma Airport

IDN60801

Issued at 4:05 am EST Tuesday 2 September 2014 (issued every 30 minutes, with the page automatically refreshed every 10 minutes)

About weather observations | Map of weather stations | Latest weather observations for NSW | Other Formats
Station Details ID: 070217 Name: COOMA AIRPORT AWS Lat: -36.29 Lon: 148.97 Height: 930.0 m
Data from the previous 72 hours. | See also: Recent months for locations in New South Wales
Date/Time
EST
Temp
°C
App
Temp
°C
Dew
Point
Rel
Hum
%
Delta-T
°C
Wind Press
QNH
hPa
Press
MSL
hPa
Rain
since 9 am
mm
Dir
 
Spd
km/h
Gust
km/h
Spd
kts
Gust
kts
02/04:00am 4.1 -3.9 3.8 98 0.1 SSW 35 48 19 26 1008.7 - 0.4
02/03:59am 4.1 -3.9 3.8 98 0.1 SW 35 48 19 26 1008.7 - 0.4
02/03:57am 4.3 -3.7 3.9 97 0.2 SW 35 48 19 26 1008.7 - 0.4
02/03:51am 5.0 -2.1 3.8 92 0.5 SW 30 48 16 26 1008.4 - 0.2
02/03:30am 5.6 -1.7 4.6 93 0.5 SW 32 39 17 21 1008.1 - 0.0
02/03:24am 5.8 -0.8 4.4 91 0.6 WSW 28 39 15 21 1008.0 - 0.0
02/03:00am 6.7 3.3 3.9 82 1.3 NW 11 17 6 9 1008.0 1008.0 0.0
02/02:30am 6.6 3.3 4.4 86 1.0 NNW 11 17 6 9 1008.1 - 0.0
02/02:00am 6.4 3.2 4.9 90 0.7 N 11 19 6 10 1008.4 - 0.0
02/01:30am 6.4 2.8 5.2 92 0.6 NNE 13 17 7 9 1008.9 - 0.0
02/01:00am 6.8 2.8 4.8 87 0.9 N 15 17 8 9 1009.3 - 0.0
02/12:30am 7.1 5.7 3.5 78 1.6 CALM 0 9 0 5 1009.5 - 0.0
02/12:00am 7.5 4.6 2.8 72 2.1 N 7 9 4 5 1009.9 1009.9 0.0
 
Date/Time
EST
Temp
°C
App
Temp
°C
Dew
Point
Rel
Hum
%
Delta-T
°C
Wind Press
QNH
hPa
Press
MSL
hPa
Rain
since 9 am
mm
Dir
 
Spd
km/h
Gust
km/h
Spd
kts
Gust
kts
01/11:30pm 8.4 4.7 2.6 67 2.6 WNW 11 17 6 9 1010.0 - 0.0
01/11:00pm 8.6 4.3 3.0 68 2.5 NW 15 20 8 11 1010.1 - 0.0
01/10:30pm 9.1 4.0 3.1 66 2.7 WNW 19 30 10 16 1010.1 - 0.0
01/10:00pm 9.4 5.4 2.9 64 2.9 W 13 19 7 10 1010.1 - 0.0
01/09:30pm 8.9 6.1 2.9 66 2.7 WNW 7 13 4 7 1009.9 - 0.0
01/09:00pm 10.3 7.2 3.8 64 3.0 WNW 9 15 5 8 1009.9 1009.9 0.0
01/08:30pm 9.1 4.6 4.3 72 2.2 N 17 19 9 10 1009.8 - 0.0
01/08:00pm 9.5 6.0 3.5 66 2.8 N 11 13 6 7 1009.9 - 0.0
01/07:30pm 10.0 6.1 3.3 63 3.1 N 13 15 7 8 1009.8 - 0.0
01/07:00pm 10.5 6.3 3.8 63 3.1 N 15 19 8 10 1009.9 - 0.0
01/06:30pm 10.8 7.1 2.4 56 3.8 N 11 19 6 10 1010.0 - 0.0
01/06:00pm 11.8 6.1 2.8 54 4.2 NNW 22 39 12 21 1010.0 1010.1 0.0
01/05:30pm 12.2 6.3 1.5 48 4.8 NNW 22 32 12 17 1010.1 - 0.0
01/05:00pm 13.1 7.2 1.8 46 5.2 NNW 22 32 12 17 1009.9 - 0.0
01/04:30pm 13.3 7.0 1.6 45 5.3 NNW 24 39 13 21 1009.5 - 0.0
01/04:00pm 14.4 7.4 1.7 42 5.8 NNW 28 35 15 19 1009.6 - 0.0
01/03:37pm 14.8 7.8 2.0 42 5.9 NNW 28 46 15 25 1009.6 - 0.0
01/03:30pm 14.8 8.0 3.0 45 5.6 NNW 28 41 15 22 1009.9 - 0.0
01/03:00pm 14.1 6.7 2.0 44 5.6 NNW 30 39 16 21 1010.0 1010.1 0.0
01/02:35pm 14.4 7.5 2.3 44 5.6 NW 28 46 15 25 1010.0 - 0.0
01/02:30pm 14.4 7.0 1.7 42 5.8 NW 30 46 16 25 1010.0 - 0.0
01/02:00pm 14.2 6.3 1.2 41 5.9 NNW 32 41 17 22 1010.4 - 0.0
01/01:30pm 14.1 7.0 1.4 42 5.8 NW 28 43 15 23 1010.9 - 0.0
01/01:00pm 13.9 5.9 1.5 43 5.7 NW 33 50 18 27 1011.5 - 0.0
01/12:30pm 13.8 7.2 2.1 45 5.4 NW 26 43 14 23 1012.1 - 0.0
01/12:00pm 14.0 8.7 2.9 47 5.2 NW 20 37 11 20 1012.5 1012.6 0.0
01/11:30am 13.9 8.5 2.5 46 5.3 WNW 20 37 11 20 1013.0 - 0.0
01/11:00am 13.7 8.5 3.5 50 4.8 NW 20 30 11 16 1013.4 - 0.0
01/10:30am 10.7 5.7 3.7 62 3.3 NE 19 22 10 12 1013.8 - 0.0
01/10:00am 9.9 5.1 4.7 70 2.5 NNE 19 20 10 11 1014.1 - 0.0
01/09:30am 8.0 3.4 3.7 74 2.0 ENE 17 24 9 13 1014.6 - 0.0
01/09:00am 7.1 2.0 3.3 77 1.7 NE 19 20 10 11 1014.9 1015.1 0.0
01/08:30am 6.3 1.8 2.4 76 1.7 N 15 20 8 11 1015.3 - 0.0
01/08:00am 6.5 1.7 2.4 75 1.8 N 17 19 9 10 1015.4 - 0.0
01/07:30am 6.7 1.5 2.2 73 2.0 N 19 20 10 11 1015.3 - 0.0
01/07:00am 3.9 -0.3 1.6 85 1.0 N 13 17 7 9 1015.3 - 0.0
01/06:30am 2.0 -2.3 1.0 93 0.4 N 13 17 7 9 1015.3 - 0.0
01/06:00am -0.4 -4.3 -1.2 94 0.3 N 9 11 5 6 1015.2 1015.4 0.0
01/05:30am 0.3 -3.8 -0.3 96 0.2 NNE 11 11 6 6 1015.3 - 0.0
01/05:00am 0.5 -3.3 -0.5 93 0.4 NNE 9 11 5 6 1015.2 - 0.0
01/04:30am 0.8 -3.2 0.4 97 0.2 NNE 11 15 6 8 1015.0 - 0.0
01/04:00am 0.5 -3.3 -0.5 93 0.4 NNE 9 11 5 6 1015.1 - 0.0
01/03:30am 0.3 -3.8 -0.3 96 0.2 NNE 11 13 6 7 1015.0 - 0.0
01/03:00am 0.7 -3.4 -0.2 94 0.3 NE 11 13 6 7 1015.4 1015.7 0.0
01/02:30am 0.3 -3.6 -1.3 89 0.6 NNE 9 11 5 6 1015.7 - 0.0
01/02:00am -0.1 -4.4 -1.8 88 0.6 ENE 11 13 6 7 1016.0 - 0.0
01/01:30am 1.4 -2.7 0.1 91 0.5 NNE 11 13 6 7 1016.3 - 0.0
01/01:00am 1.1 -2.3 -0.7 88 0.7 N 7 11 4 6 1016.2 - 0.0
01/12:30am 0.7 -2.6 -1.5 85 0.9 NE 6 9 3 5 1016.5 - 0.0
01/12:00am 1.2 -2.2 -0.9 86 0.8 NNE 7 9 4 5 1016.7 1016.9 0.0
 
Date/Time
EST
Temp
°C
App
Temp
°C
Dew
Point
Rel
Hum
%
Delta-T
°C
Wind Press
QNH
hPa
Press
MSL
hPa
Rain
since 9 am
mm
Dir
 
Spd
km/h
Gust
km/h
Spd
kts
Gust
kts
31/11:30pm 0.8 -2.7 -1.6 84 0.9 NNE 7 11 4 6 1017.0 - 0.0
31/11:00pm 2.1 -1.2 0.3 88 0.7 NNE 7 9 4 5 1017.1 - 0.0
31/10:30pm 1.9 -1.5 -0.3 85 0.9 NNE 7 9 4 5 1017.3 - 0.0
31/10:00pm 1.5 -2.3 -0.7 85 0.8 NNE 9 15 5 8 1017.5 - 0.0
31/09:30pm 4.6 1.6 1.8 82 1.2 NNW 7 9 4 5 1017.9 - 0.0
31/09:00pm 3.0 -0.4 -0.5 78 1.4 N 7 9 4 5 1017.7 1019.0 0.0
31/08:30pm 5.5 2.0 1.2 74 1.8 N 9 11 5 6 1017.6 - 0.0
31/08:00pm 2.8 -0.5 0.4 84 1.0 N 7 9 4 5 1017.4 - 0.0
31/07:30pm 4.1 2.2 0.4 77 1.5 CALM 0 0 0 0 1017.5 - 0.0
31/07:00pm 4.7 2.0 0.3 73 1.8 NNE 4 9 2 5 1017.4 - 0.0
31/06:30pm 6.4 4.6 1.5 71 2.1 CALM 0 0 0 0 1017.2 - 0.0
31/06:00pm 9.7 7.9 1.4 56 3.6 CALM 0 0 0 0 1017.2 1018.4 0.0
31/05:30pm 12.9 11.3 2.2 48 4.9 CALM 0 0 0 0 1017.0 - 0.0
31/05:00pm 14.3 12.4 0.5 39 6.2 CALM 0 0 0 0 1017.0 - 0.0
31/04:30pm 15.0 12.0 0.8 38 6.4 NNE 6 9 3 5 1016.8 - 0.0
31/04:00pm 15.3 12.2 -0.1 35 6.9 NNE 6 9 3 5 1016.8 - 0.0
31/03:30pm 14.9 12.4 -0.8 34 6.9 ESE 2 9 1 5 1016.8 - 0.0
31/03:00pm 15.3 12.2 -0.1 35 6.9 ENE 6 11 3 6 1017.0 1018.2 0.0
31/02:30pm 15.2 11.6 0.6 37 6.6 ENE 9 19 5 10 1017.3 - 0.0
31/02:00pm 14.9 11.7 0.7 38 6.4 NE 7 15 4 8 1017.6 - 0.0
31/01:30pm 14.1 10.9 -0.7 36 6.5 E 6 11 3 6 1017.9 - 0.0
31/01:00pm 13.9 10.5 -0.5 37 6.3 ESE 7 13 4 7 1018.2 - 0.0
31/12:30pm 13.7 10.4 2.6 47 5.2 E 9 13 5 7 1018.7 - 0.0
31/12:00pm 13.2 9.4 3.8 53 4.5 ENE 13 19 7 10 1019.4 1020.7 0.0
31/11:30am 12.1 8.1 2.8 53 4.3 NE 13 19 7 10 1019.8 - 0.0
31/11:00am 10.9 6.7 3.9 62 3.3 NE 15 20 8 11 1020.2 - 0.0
31/10:30am 9.5 5.5 3.0 64 3.0 NE 13 17 7 9 1020.7 - 0.0
31/10:00am 7.1 2.6 2.4 72 2.1 NNE 15 17 8 9 1021.1 - 0.0
31/09:30am 5.7 1.3 2.5 80 1.4 NE 15 19 8 10 1021.1 - 0.0
31/09:00am 4.2 0.5 2.4 88 0.8 NE 11 13 6 7 1021.2 1022.6 0.2
31/08:30am 2.3 -2.2 2.2 99 0.0 NE 15 17 8 9 1021.5 - 0.2
31/08:00am 0.5 -3.9 0.4 99 0.0 NNE 13 15 7 8 1021.4 - 0.2
31/07:58am 0.3 -3.7 0.2 99 0.0 NNE 11 15 6 8 1021.4 - 0.2
31/07:56am 0.2 -3.9 0.1 99 0.0 NNE 11 15 6 8 1021.4 - 0.2
31/07:30am -1.5 -5.4 -1.6 99 0.0 N 9 9 5 5 1021.2 - 0.2
31/07:00am -2.3 -6.7 -2.4 99 -0.1 N 11 13 6 7 1021.2 - 0.2
31/06:30am -1.9 -5.5 -2.0 99 -0.1 N 7 11 4 6 1021.1 - 0.2
31/06:00am -3.4 -8.3 -3.5 99 -0.1 NNE 13 13 7 7 1020.8 1022.1 0.2
31/05:30am -3.2 -7.7 -3.3 99 -0.1 N 11 11 6 6 1020.7 - 0.2
31/05:00am -2.9 -7.0 -3.0 99 -0.1 N 9 11 5 6 1020.8 - 0.2
31/04:44am -3.3 -7.4 -3.4 99 -0.1 N 9 11 5 6 1020.9 - 0.2
31/04:43am -3.2 -7.3 -3.3 99 -0.1 N 9 11 5 6 1020.9 - 0.2
31/04:35am -3.4 -7.6 -3.5 99 -0.1 N 9 9 5 5 1020.8 - 0.2
31/04:30am -3.1 -7.2 -3.2 99 -0.1 N 9 11 5 6 1020.8 - 0.2
31/04:26am -2.7 -6.8 -2.8 99 -0.1 N 9 13 5 7 1020.7 - 0.2
31/04:00am -2.7 -6.8 -2.8 99 -0.1 N 9 9 5 5 1020.9 - 0.2
31/03:46am -2.3 -6.0 -2.6 98 0.0 N 7 9 4 5 1021.0 - 0.2
31/03:44am -3.0 -6.8 -3.4 97 0.0 N 7 9 4 5 1021.0 - 0.2
31/03:30am -2.9 -6.7 -3.4 96 0.0 N 7 9 4 5 1021.2 - 0.2
31/03:00am -1.2 -4.7 -1.3 99 0.0 N 7 7 4 4 1021.5 1022.8 0.2
31/02:39am -2.1 -5.7 -2.4 98 0.0 N 7 9 4 5 1021.6 - 0.2
31/02:34am -1.2 -4.7 -1.3 99 0.0 N 7 9 4 5 1021.6 - 0.2
31/02:30am -1.0 -4.3 -1.1 99 0.0 N 6 9 3 5 1021.7 - 0.2
31/02:03am -0.7 -3.9 -0.8 99 0.0 N 6 7 3 4 1021.9 - 0.2
31/02:00am -0.5 -3.7 -0.6 99 0.0 N 6 7 3 4 1021.8 - 0.2
31/01:54am -0.6 -3.8 -0.7 99 0.0 N 6 7 3 4 1021.9 - 0.2
31/01:30am -1.2 -4.7 -1.3 99 0.0 N 7 7 4 4 1022.1 - 0.2
31/01:00am -1.2 -3.4 -1.5 98 0.1 CALM 0 0 0 0 1022.3 - 0.2
31/12:30am -1.0 -3.6 -1.8 94 0.2 SE 2 7 1 4 1022.7 - 0.2
31/12:00am 0.1 -1.9 -0.3 97 0.2 CALM 0 0 0 0 1022.9 1024.3 0.2
 
Date/Time
EST
Temp
°C
App
Temp
°C
Dew
Point
Rel
Hum
%
Delta-T
°C
Wind Press
QNH
hPa
Press
MSL
hPa
Rain
since 9 am
mm
Dir
 
Spd
km/h
Gust
km/h
Spd
kts
Gust
kts
30/11:30pm -0.3 -2.4 -1.1 94 0.3 CALM 0 0 0 0 1023.1 - 0.2
30/11:00pm 0.0 -2.1 -0.8 94 0.3 CALM 0 0 0 0 1023.3 - 0.2
30/10:30pm 1.2 -0.6 0.9 98 0.1 CALM 0 0 0 0 1023.5 - 0.2
30/10:00pm 1.0 -0.9 0.3 95 0.3 CALM 0 0 0 0 1023.7 - 0.2
30/09:30pm 1.7 -0.1 1.0 95 0.3 CALM 0 0 0 0 1023.8 - 0.2
30/09:00pm 2.0 0.2 1.0 93 0.4 CALM 0 0 0 0 1023.9 1025.3 0.2
30/08:30pm 2.3 0.5 1.3 93 0.4 CALM 0 0 0 0 1024.0 - 0.2
30/08:00pm 2.4 0.5 0.5 87 0.8 CALM 0 0 0 0 1023.8 - 0.2
30/07:30pm 3.6 1.8 1.0 83 1.1 CALM 0 0 0 0 1023.7 - 0.2
30/07:00pm 4.1 2.3 1.1 81 1.2 CALM 0 0 0 0 1023.7 - 0.2
30/06:30pm 5.3 3.6 2.1 80 1.4 CALM 0 0 0 0 1023.5 - 0.2
30/06:00pm 7.3 4.6 2.6 72 2.1 SSW 6 7 3 4 1023.4 1024.8 0.2
30/05:30pm 9.4 6.5 4.4 71 2.3 S 9 11 5 6 1023.4 - 0.2
30/05:00pm 11.7 10.1 2.2 52 4.3 CALM 0 0 0 0 1023.4 - 0.2
30/04:30pm 12.1 9.6 1.7 49 4.7 NE 4 9 2 5 1023.3 - 0.2
30/04:00pm 12.4 10.7 2.0 49 4.7 CALM 0 6 0 3 1023.3 - 0.2
30/03:30pm 12.1 9.1 2.3 51 4.5 E 7 13 4 7 1023.5 - 0.2
30/03:00pm 11.4 8.0 1.9 52 4.3 ESE 9 15 5 8 1023.7 1025.0 0.2
30/02:30pm 12.6 9.1 3.3 53 4.4 SSW 11 15 6 8 1024.0 - 0.2
30/02:00pm 12.5 10.2 2.7 51 4.5 SW 4 9 2 5 1024.3 - 0.2
30/01:30pm 11.8 8.6 3.3 56 4.0 SSW 9 17 5 9 1024.6 - 0.2
30/01:00pm 10.7 8.2 1.8 54 4.0 SW 4 11 2 6 1025.0 - 0.0
30/12:30pm 10.0 6.8 2.8 61 3.3 SSW 9 13 5 7 1025.5 - 0.0
30/12:00pm 10.5 7.2 4.6 67 2.8 SW 11 15 6 8 1026.0 1027.4 0.0
30/11:30am 9.4 6.1 2.5 62 3.1 SSE 9 15 5 8 1026.4 - 0.0
30/11:00am 9.8 6.6 3.1 63 3.1 WSW 9 15 5 8 1026.7 - 0.0
30/10:30am 8.9 5.0 3.5 69 2.5 SW 13 20 7 11 1027.0 - 0.0
30/10:00am 7.7 3.8 3.4 74 1.9 SW 13 17 7 9 1027.3 - 0.0
30/09:30am 6.8 2.4 2.5 74 1.9 SW 15 19 8 10 1027.5 - 0.0
30/09:00am 5.8 1.5 3.1 83 1.2 WSW 15 20 8 11 1027.7 1029.2 0.0
30/08:56am 5.8 1.2 3.5 85 1.0 WSW 17 20 9 11 1027.7 - 0.0
30/08:34am 5.3 0.7 3.8 90 0.7 WSW 17 20 9 11 1027.8 - 0.0
30/08:30am 5.0 0.4 3.5 90 0.7 SW 17 20 9 11 1027.8 - 0.0
30/08:00am 4.4 0.2 3.7 95 0.3 SW 15 19 8 10 1027.8 - 0.0
30/07:30am 3.2 -1.1 3.1 99 0.0 SW 15 19 8 10 1027.8 - 0.0
30/07:00am 0.8 -2.8 0.7 99 0.0 SSW 9 11 5 6 1027.7 - 0.0
30/06:30am -0.1 -3.3 -0.2 99 0.0 SSW 6 9 3 5 1027.6 - 0.0
30/06:00am -0.1 -5.0 -0.2 99 0.0 WSW 15 17 8 9 1027.2 1028.6 0.0
30/05:30am -0.7 -5.3 -0.8 99 0.0 WSW 13 15 7 8 1027.2 - 0.0
30/05:00am -0.6 -4.0 -0.7 99 0.0 SW 7 9 4 5 1027.2 - 0.0
30/04:30am -0.1 -3.4 -0.2 99 0.0 SSW 7 9 4 5 1027.2 - 0.0

Other Formats:

Comma delimited format used in spreadsheet applications
http://www.bom.gov.au/fwo/IDN60801/IDN60801.94921.axf

JavaScript Object Notation format (JSON) in row-major order
http://www.bom.gov.au/fwo/IDN60801/IDN60801.94921.json